Latest Coastal Weather Observations for Whyalla

IDS60701

Issued at 3:11 pm CST Saturday 5 September 2015 (issued every 10 minutes, with the page automatically refreshed every 10 minutes)

About coastal observations | Map of coastal stations | Coastal observations for SA | Marine services | Other Formats
Station Details ID: 018120 Name: WHYALLA AERO Lat: -33.05 Lon: 137.52 Height: 6.5 m
Data from the previous 72 hours. | See also: Recent months at Whyalla
Date/Time
CST
Temp

°C
Wind Pressure Rain
since 9am
mm
Weather Cloud Vis
km
Sea
Height
m
Swell
Dir
 
Speed
knots
Gust
knots
hPa Trend Height
m
Period
s
Dir
05/03:00pm 19.1 E 13 18 1018.8 - 0.0 - Mostly clear 10 - - - -
05/02:30pm 19.4 NE 5 8 1019.8 - 0.0 - Partly cloudy 10 - - - -
05/02:00pm 19.1 NNW 8 12 1020.4 - 0.0 - Partly cloudy 10 - - - -
05/01:30pm 19.5 N 4 8 1020.6 - 0.0 - Partly cloudy 10 - - - -
05/01:00pm 18.6 NNW 8 13 1021.1 - 0.0 - Partly cloudy 10 - - - -
05/12:30pm 19.7 NNW 9 15 1021.7 - 0.0 - Partly cloudy 10 - - - -
05/12:00pm 18.8 N 7 11 1022.0 - 0.0 - Mostly clear 10 - - - -
05/11:30am 18.3 N 8 11 1022.8 - 0.0 - - 10 - - - -
05/11:00am 17.3 N 6 10 1023.5 - 0.0 - - 10 - - - -
05/10:30am 16.5 NNE 7 11 1023.5 - 0.0 - - 10 - - - -
05/10:00am 15.1 NE 4 6 1023.9 - 0.0 - - 10 - - - -
05/09:30am 13.7 ENE 4 6 1024.2 - 0.0 - - 10 - - - -
05/09:00am 12.6 NNE 2 5 1024.5 - 0.0 - - 10 - - - -
05/08:30am 10.4 CALM 0 3 1025.0 - 0.0 - - 10 - - - -
05/08:00am 7.8 NNW 3 4 1024.6 - 0.0 - - 10 - - - -
05/07:30am 5.6 NW 4 5 1024.5 - 0.0 - - 10 - - - -
05/07:00am 3.8 NW 5 5 1024.3 - 0.0 - - 10 - - - -
05/06:30am 3.2 NNW 5 6 1023.9 - 0.0 - - 10 - - - -
05/06:00am 3.4 NW 5 6 1023.8 - 0.0 - - 10 - - - -
05/05:30am 3.2 NNW 5 5 1023.7 - 0.0 - - 10 - - - -
05/05:00am 3.5 NW 4 5 1023.3 - 0.0 - - 10 - - - -
05/04:30am 3.8 NW 5 6 1023.1 - 0.0 - - 10 - - - -
05/04:00am 3.8 NNW 5 5 1023.1 - 0.0 - - 10 - - - -
05/03:30am 3.8 NW 4 5 1023.1 - 0.0 - - 10 - - - -
05/03:00am 4.0 WNW 3 4 1023.3 - 0.0 - - 10 - - - -
05/02:30am 4.2 WNW 4 5 1023.6 - 0.0 - - 10 - - - -
05/02:00am 4.3 W 3 4 1024.0 - 0.0 - - 10 - - - -
05/01:30am 4.6 W 5 6 1024.4 - 0.0 - - 10 - - - -
05/01:00am 4.7 W 3 5 1024.8 - 0.0 - - 10 - - - -
05/12:30am 5.2 WNW 1 4 1024.9 - 0.0 - - 10 - - - -
05/12:00am 5.9 NNW 3 4 1024.9 - 0.0 - - 10 - - - -
 
Date/Time
CST
Temp

°C
Wind Pressure Rain
since 9am
mm
Weather Cloud Vis
km
Sea
Height
m
Swell
Dir
 
Speed
knots
Gust
knots
hPa Trend Height
m
Period
s
Dir
04/11:30pm 6.0 NNW 2 6 1025.3 - 0.0 - - 10 - - - -
04/11:00pm 7.7 ENE 3 5 1025.5 - 0.0 - - 10 - - - -
04/10:30pm 8.1 NW 2 4 1025.9 - 0.0 - - 10 - - - -
04/10:00pm 10.9 SE 5 7 1026.1 - 0.0 - - 10 - - - -
04/09:30pm 11.4 SSE 7 9 1026.1 - 0.0 - - 10 - - - -
04/09:00pm 11.5 SSE 8 11 1025.9 - 0.0 - - 10 - - - -
04/08:30pm 11.6 SSE 8 11 1025.5 - 0.0 - - 10 - - - -
04/08:00pm 11.6 SSE 8 11 1025.3 - 0.0 - - 10 - - - -
04/07:30pm 11.4 SSE 7 9 1025.2 - 0.0 - - 10 - - - -
04/07:00pm 11.6 SSE 7 9 1025.3 - 0.0 - - 10 - - - -
04/06:30pm 11.7 SSE 6 8 1025.1 - 0.0 - - 10 - - - -
04/06:00pm 12.3 SSE 8 11 1025.0 - 0.0 - - 10 - - - -
04/05:30pm 13.1 SE 8 11 1024.9 - 0.0 - - 10 - - - -
04/05:00pm 13.2 SE 8 10 1024.8 - 0.0 - - 10 - - - -
04/04:30pm 14.0 SSE 9 12 1024.8 - 0.0 - - 10 - - - -
04/04:00pm 13.7 SE 10 12 1024.6 - 0.0 - - 10 - - - -
04/03:30pm 14.4 SE 9 12 1024.7 - 0.0 - - 10 - - - -
04/03:00pm 14.6 SE 9 13 1024.8 - 0.0 - - 10 - - - -
04/02:30pm 14.3 SE 9 13 1024.9 - 0.0 - - 10 - - - -
04/02:00pm 14.2 SE 10 14 1025.1 - 0.0 - Partly cloudy 10 - - - -
04/01:30pm 14.0 SSE 9 13 1025.4 - 0.0 - Partly cloudy 10 - - - -
04/01:00pm 14.3 SE 7 11 1025.9 - 0.0 - Cloudy 10 - - - -
04/12:30pm 14.2 SSE 7 11 1026.4 - 0.0 - Cloudy 10 - - - -
04/12:00pm 13.7 SE 9 12 1026.7 - 0.0 - Partly cloudy 10 - - - -
04/11:30am 13.5 SE 8 11 1026.8 - 0.0 - Partly cloudy 10 - - - -
04/11:00am 13.5 SE 7 10 1027.1 - 0.0 - Cloudy 10 - - - -
04/10:30am 13.4 SSE 6 9 1027.5 - 0.0 - Cloudy 10 - - - -
04/10:00am 13.2 SSE 8 13 1027.7 - 0.0 - Cloudy 10 - - - -
04/09:30am 13.6 SSE 8 11 1027.9 - 0.0 - Cloudy 10 - - - -
04/09:00am 12.8 SSE 8 13 1027.9 - 0.2 - Cloudy 10 - - - -
04/08:30am 12.5 SSE 9 11 1028.0 - 0.2 - Cloudy 10 - - - -
04/08:00am 11.8 S 8 11 1028.0 - 0.2 - Cloudy 10 - - - -
04/07:30am 10.6 SSW 4 5 1027.8 - 0.2 - Partly cloudy 10 - - - -
04/07:00am 10.0 SE 5 6 1027.2 - 0.2 - - 10 - - - -
04/06:30am 10.1 SE 7 9 1026.8 - 0.2 - - 10 - - - -
04/06:00am 10.0 SE 6 8 1026.5 - 0.2 - - 10 - - - -
04/05:30am 10.2 SE 6 7 1026.4 - 0.2 - Partly cloudy 10 - - - -
04/05:00am 10.1 SE 5 7 1026.3 - 0.2 - Partly cloudy 10 - - - -
04/04:30am 10.8 ESE 6 7 1026.1 - 0.2 - Partly cloudy 10 - - - -
04/04:00am 11.0 SSE 7 9 1025.9 - 0.2 - - 10 - - - -
04/03:40am 11.3 SSE 8 11 1025.8 - 0.2 - Partly cloudy 10 - - - -
04/03:30am 11.5 SSE 8 11 1025.8 - 0.2 - Partly cloudy 10 - - - -
04/03:28am 11.6 SSE 8 10 1025.9 - 0.2 - Partly cloudy 10 - - - -
04/03:27am 11.6 SSE 8 10 1025.9 - 0.2 - Partly cloudy 10 - - - -
04/03:00am 11.9 SSE 7 10 1026.1 - 0.2 - Cloudy 10 - - - -
04/02:57am 11.9 S 7 10 1026.1 - 0.2 - Partly cloudy 10 - - - -
04/02:30am 12.0 SSE 5 7 1026.2 - 0.2 - Partly cloudy 10 - - - -
04/02:00am 12.0 SSE 6 7 1026.3 - 0.2 - Partly cloudy 10 - - - -
04/01:30am 12.0 SE 6 9 1026.4 - 0.2 - Partly cloudy 10 - - - -
04/01:00am 11.9 SSE 6 8 1026.6 - 0.2 - Partly cloudy 10 - - - -
04/12:30am 12.2 SSE 7 10 1026.5 - 0.2 - Partly cloudy 10 - - - -
04/12:00am 12.3 SSE 7 9 1026.6 - 0.2 - Cloudy 10 - - - -
 
Date/Time
CST
Temp

°C
Wind Pressure Rain
since 9am
mm
Weather Cloud Vis
km
Sea
Height
m
Swell
Dir
 
Speed
knots
Gust
knots
hPa Trend Height
m
Period
s
Dir
03/11:30pm 12.4 SSE 6 8 1026.7 - 0.2 - Partly cloudy 10 - - - -
03/11:00pm 12.3 SSE 6 7 1026.7 - 0.2 - Partly cloudy 10 - - - -
03/10:43pm 12.4 S 7 10 1026.7 - 0.2 - Partly cloudy 10 - - - -
03/10:30pm 12.4 SSE 6 8 1026.7 - 0.2 - Partly cloudy 10 - - - -
03/10:00pm 12.3 SSW 9 11 1026.5 - 0.2 - Partly cloudy 10 - - - -
03/09:42pm 12.2 SW 9 12 1026.4 - 0.2 - Partly cloudy 10 - - - -
03/09:30pm 12.1 SW 9 11 1026.2 - 0.2 - Partly cloudy 7 - - - -
03/09:14pm 12.0 SW 8 11 1026.1 - 0.2 - Partly cloudy 10 - - - -
03/09:04pm 12.0 SW 10 12 1026.0 - 0.0 - Partly cloudy 5 - - - -
03/09:00pm 12.2 SW 10 12 1026.0 - 0.0 - Cloudy 7 - - - -
03/08:30pm 12.5 SSW 10 13 1025.9 - 0.0 - Partly cloudy 10 - - - -
03/08:00pm 12.5 SSW 9 13 1025.7 - 0.0 - Partly cloudy 10 - - - -
03/07:30pm 12.9 SSW 11 15 1025.3 - 0.0 - Partly cloudy 10 - - - -
03/07:00pm 13.3 SSW 11 15 1025.0 - 0.0 - Cloudy 10 - - - -
03/06:30pm 13.3 SSW 13 16 1024.6 - 0.0 - Partly cloudy 10 - - - -
03/06:00pm 13.2 S 15 19 1024.2 - 0.0 - Cloudy 10 - - - -
03/05:30pm 13.9 SSW 16 21 1023.8 - 0.0 - Partly cloudy 10 - - - -
03/05:00pm 14.2 S 15 20 1023.7 - 0.0 - Partly cloudy 10 - - - -
03/04:30pm 14.2 SSW 16 21 1023.1 - 0.0 - Partly cloudy 10 - - - -
03/04:00pm 14.4 SSW 15 19 1023.1 - 0.0 - Partly cloudy 10 - - - -
03/03:30pm 14.6 SSW 16 20 1022.8 - 0.0 - Cloudy 10 - - - -
03/03:00pm 15.2 SSW 17 21 1022.4 - 0.0 - Cloudy 10 - - - -
03/02:30pm 15.0 SSW 17 22 1022.2 - 0.0 - Cloudy 10 - - - -
03/02:00pm 14.6 SSW 17 23 1022.2 - 0.0 - Partly cloudy 10 - - - -
03/01:30pm 15.0 SSW 17 23 1022.2 - 0.0 - Cloudy 10 - - - -
03/01:00pm 14.9 S 17 22 1022.2 - 0.0 - Partly cloudy 10 - - - -
03/12:30pm 15.1 SSW 17 23 1022.3 - 0.0 - Partly cloudy 10 - - - -
03/12:06pm 14.5 S 17 24 1022.4 - 0.0 - Partly cloudy 10 - - - -
03/12:00pm 14.6 S 17 23 1022.5 - 0.0 - Cloudy 10 - - - -
03/11:35am 15.2 S 19 24 1022.3 - 0.0 - Partly cloudy 10 - - - -
03/11:30am 15.1 S 18 24 1022.3 - 0.0 - Partly cloudy 10 - - - -
03/11:00am 15.1 S 15 20 1022.4 - 0.0 - Partly cloudy 10 - - - -
03/10:30am 14.2 SSW 14 19 1022.1 - 0.0 - Partly cloudy 10 - - - -
03/10:26am 13.8 SSW 14 17 1022.1 - 0.0 - Partly cloudy 10 - - - -
03/10:09am 13.6 SSW 19 25 1022.1 - 0.0 - Partly cloudy 10 - - - -
03/10:00am 14.3 S 16 24 1021.9 - 0.0 - Partly cloudy 10 - - - -
03/09:30am 13.8 SSW 15 20 1021.7 - 0.0 - Partly cloudy 10 - - - -
03/09:15am 13.8 SSW 15 19 1021.4 - 0.0 - Partly cloudy 10 - - - -
03/09:00am 13.7 SSW 14 20 1021.1 - 2.4 Recent precip. Mostly cloudy 10 - - - -
03/08:46am 13.1 SSW 14 19 1020.8 - 2.4 - Partly cloudy 10 - - - -
03/08:40am 12.9 SSW 15 20 1020.7 - 2.4 - Partly cloudy 10 - - - -
03/08:30am 12.5 SSW 17 24 1020.6 - 2.4 - Partly cloudy 5 - - - -
03/08:02am 12.6 SW 13 18 1019.9 - 2.0 - Partly cloudy 5 - - - -
03/08:00am 12.6 SW 13 18 1019.8 - 2.0 - Partly cloudy 6 - - - -
03/07:44am 12.6 SW 14 17 1019.3 - 2.0 - Partly cloudy 8 - - - -
03/07:30am 12.7 SW 12 16 1018.9 - 2.0 - Partly cloudy 10 - - - -
03/07:00am 11.8 SW 10 16 1018.4 - 2.0 - Partly cloudy 10 - - - -
03/06:30am 9.1 W 6 7 1018.1 - 2.0 - Partly cloudy 10 - - - -
03/06:00am 9.9 SW 8 11 1017.4 - 2.0 - - 10 - - - -
03/05:30am 10.3 SW 9 12 1016.9 - 2.0 - Partly cloudy 10 - - - -
03/05:00am 9.7 WSW 7 8 1016.5 - 2.0 - - 10 - - - -
03/04:30am 9.9 WSW 7 9 1016.1 - 2.0 - Partly cloudy 10 - - - -
03/04:00am 10.0 WSW 6 8 1015.8 - 2.0 - Partly cloudy 10 - - - -
03/03:30am 10.4 WSW 7 10 1015.2 - 2.0 - Partly cloudy 10 - - - -
03/03:00am 9.9 WSW 8 9 1014.8 - 2.0 - - 10 - - - -
03/02:30am 11.0 SW 11 15 1014.5 - 2.0 - Partly cloudy 10 - - - -
03/02:00am 11.4 SW 13 19 1014.1 - 2.0 - Partly cloudy 10 - - - -
03/01:30am 10.7 SW 10 13 1014.0 - 2.0 - Partly cloudy 10 - - - -
03/01:00am 11.3 SW 12 16 1013.8 - 2.0 - Partly cloudy 10 - - - -
03/12:30am 11.5 SW 14 20 1013.5 - 2.0 - Partly cloudy 10 - - - -
03/12:00am 11.5 SW 11 14 1013.3 - 2.0 - Mostly cloudy 10 - - - -
 
Date/Time
CST
Temp

°C
Wind Pressure Rain
since 9am
mm
Weather Cloud Vis
km
Sea
Height
m
Swell
Dir
 
Speed
knots
Gust
knots
hPa Trend Height
m
Period
s
Dir
02/11:30pm 11.2 WSW 11 15 1012.6 - 2.0 - Partly cloudy 10 - - - -
02/11:00pm 11.2 WSW 11 17 1012.3 - 2.0 - Partly cloudy 10 - - - -
02/10:30pm 11.3 WSW 11 18 1011.5 - 2.0 - - 10 - - - -
02/10:00pm 11.3 WSW 12 17 1010.7 - 2.0 - - 10 - - - -
02/09:30pm 11.5 SW 14 18 1010.1 - 2.0 - - 10 - - - -
02/09:00pm 11.7 WSW 14 21 1009.4 - 2.0 - Mostly clear 10 - - - -
02/08:30pm 12.0 SW 17 23 1008.6 - 2.0 - - 10 - - - -
02/08:00pm 12.3 WSW 17 26 1007.9 - 2.0 - Partly cloudy 10 - - - -
02/07:30pm 12.7 WSW 17 22 1007.3 - 2.0 - Partly cloudy 10 - - - -
02/07:00pm 12.6 WSW 12 18 1006.6 - 2.0 - Partly cloudy 10 - - - -
02/06:30pm 13.1 WSW 15 22 1005.8 - 2.0 - Partly cloudy 10 - - - -
02/06:00pm 13.6 WSW 17 23 1005.0 - 2.0 - Cloudy 10 - - - -
02/05:30pm 13.9 WSW 15 24 1004.2 - 2.0 - Partly cloudy 10 - - - -
02/05:19pm 13.7 WSW 15 25 1004.0 - 2.0 - Partly cloudy 10 - - - -
02/05:00pm 14.3 W 18 27 1003.6 - 2.0 - Partly cloudy 10 - - - -
02/04:30pm 14.1 W 18 27 1002.7 - 2.0 - Partly cloudy 10 - - - -
02/04:10pm 13.8 WNW 16 26 1002.3 - 2.0 - - 10 - - - -
02/04:00pm 14.0 WNW 18 25 1002.1 - 2.0 - - 10 - - - -
02/03:54pm 14.1 WNW 19 29 1002.1 - 2.0 - Partly cloudy 10 - - - -
02/03:30pm 13.5 WNW 19 26 1001.8 - 2.0 - Partly cloudy 10 - - - -

Other Formats:

Comma delimited format used in spreadsheet applications
http://www.bom.gov.au/fwo/IDS60701/IDS60701.95664.axf

JavaScript Object Notation format (JSON) in row-major order
http://www.bom.gov.au/fwo/IDS60701/IDS60701.95664.json